Portada
METAR-TAF:

METAR-TAF

Aeropuertos :

Aeropuerto de Bornholm

Rønne, Dinamarca

latitud: 55-04N, longitud: 014-45E, altitud: 16 m

Observación

El informe se hizo hace 21 minutos, a las 00:20 UTC
Viento 22 kt del suroeste
Temperatura 5°C
Humedad 87%
Presión 1006 hPa
Visibilidad 10 km o más

METAR: EKRN 060020Z AUTO 23022KT 9999 OVC009/// 05/03 Q1006

Hora: 01:41 (00:41 UTC)

Pronóstico

El informe se hizo hace 7 horas y 36 minutos, a las 17:05 UTC
Pronóstico válido del 05 a las 18 UTC al 05 a las 23 UTC
Viento 18 kt del oeste-suroeste
Visibilidad: 8000 m
Cielo nuboso a una altura de 1500 ft
Temporalmente
del 05 a las 18 UTC al 05 a las 23 UTC
Viento 20 kt del oeste-suroeste con ráfagas de 32 kt
Cielo nuboso a una altura de 800 ft

TAF: EKRN 051705Z 0518/0523 24018KT 8000 BKN015 TEMPO 0518/0523 24020G32KT BKN008

Observaciones y pronósticos meteorológicos de más de 4000 aeropuertos (mensajes METAR y TAF).

Los puntos amarillos y rojos representan las estaciones disponibles.

Ponga el ratón en el punto deseado para ver el nombre de la estación.

Haga clic para ver las observaciones y los pronósticos meteorológicos.

Para cambiar el mapa : haga clic en los botones verdes con una cruz de color negro para hacer un zoom, en el botón verde con un guión para alejar o en las flechas verdes para mapas adyacentes.


METAR-TAF: